createdAt,value
2022-12-31T00:00:11.120Z,98151.23
2022-12-31T00:01:11.078Z,98149.48
2022-12-31T00:02:11.235Z,98145.98
2022-12-31T00:03:11.276Z,98146.30
2022-12-31T00:04:11.071Z,98141.63
2022-12-31T00:05:11.079Z,98146.93
2022-12-31T00:06:19.072Z,98155.70
2022-12-31T00:07:11.071Z,98150.10
2022-12-31T00:09:13.186Z,98154.87
2022-12-31T00:10:11.074Z,98150.67
2022-12-31T00:11:11.075Z,98148.52
2022-12-31T00:12:11.076Z,98150.53
2022-12-31T00:13:11.085Z,98154.25
2022-12-31T00:14:11.082Z,98153.61
2022-12-31T00:15:11.077Z,98160.77
2022-12-31T00:16:17.626Z,98157.58
2022-12-31T00:17:13.456Z,98161.07
2022-12-31T00:18:11.081Z,98154.74
2022-12-31T00:19:11.087Z,98162.07
2022-12-31T00:20:11.071Z,98159.13
2022-12-31T00:21:11.079Z,98161.52
2022-12-31T00:22:11.075Z,98167.10
2022-12-31T00:23:11.113Z,98168.45
2022-12-31T00:24:11.076Z,98152.72
2022-12-31T00:25:11.088Z,98157.31
2022-12-31T00:26:11.083Z,98151.87
2022-12-31T00:27:11.077Z,98151.03
2022-12-31T00:28:11.077Z,98136.65
2022-12-31T00:29:11.078Z,98140.09
2022-12-31T00:30:11.080Z,98146.21
2022-12-31T00:31:15.094Z,98145.36
2022-12-31T00:32:11.071Z,98144.74
2022-12-31T00:33:11.080Z,98147.57
2022-12-31T00:34:11.076Z,98144.40
2022-12-31T00:35:11.077Z,98160.94
2022-12-31T00:36:14.079Z,98156.06
2022-12-31T00:37:11.077Z,98152.44
2022-12-31T00:38:11.073Z,98152.32
2022-12-31T00:39:11.076Z,98149.20
2022-12-31T00:40:11.078Z,98149.20
2022-12-31T00:41:11.073Z,98146.43
2022-12-31T00:42:11.079Z,98148.61
2022-12-31T00:43:11.101Z,98149.30
2022-12-31T00:44:13.077Z,98136.05
2022-12-31T00:45:11.077Z,98130.84
2022-12-31T00:46:11.138Z,98131.41
2022-12-31T00:48:13.348Z,98133.04
2022-12-31T00:49:11.092Z,98136.82
2022-12-31T00:50:11.074Z,98132.80
2022-12-31T00:51:11.073Z,98128.61
2022-12-31T00:52:11.080Z,98131.87
2022-12-31T00:53:11.075Z,98127.57
2022-12-31T00:54:11.080Z,98128.92
2022-12-31T00:55:11.086Z,98132.84
2022-12-31T00:56:17.077Z,98140.96
2022-12-31T00:57:11.073Z,98126.12
2022-12-31T00:58:11.079Z,98137.58
2022-12-31T00:59:11.076Z,98136.93
2022-12-31T01:00:11.062Z,98137.62
2022-12-31T01:01:17.229Z,98141.50
2022-12-31T01:02:11.380Z,98141.66
2022-12-31T01:03:11.120Z,98134.03
2022-12-31T01:04:15.064Z,98137.00
2022-12-31T01:05:11.063Z,98132.92
2022-12-31T01:06:11.060Z,98142.21
2022-12-31T01:07:11.068Z,98144.60
2022-12-31T01:08:11.068Z,98149.29
2022-12-31T01:09:11.064Z,98152.02
2022-12-31T01:10:11.070Z,98146.02
2022-12-31T01:11:15.064Z,98145.62
2022-12-31T01:12:11.060Z,98143.38
2022-12-31T01:13:11.062Z,98146.62
2022-12-31T01:14:17.076Z,98137.15
2022-12-31T01:15:11.061Z,98139.30
2022-12-31T01:16:11.147Z,98141.29
2022-12-31T01:17:11.077Z,98132.20
2022-12-31T01:18:11.063Z,98138.19
2022-12-31T01:19:11.096Z,98139.61
2022-12-31T01:20:11.067Z,98136.59
2022-12-31T01:21:11.069Z,98137.01
2022-12-31T01:22:11.061Z,98133.34
2022-12-31T01:23:11.066Z,98135.14
2022-12-31T01:24:11.071Z,98132.44
2022-12-31T01:25:11.083Z,98134.16
2022-12-31T01:26:11.075Z,98129.84
2022-12-31T01:27:11.069Z,98127.34
2022-12-31T01:28:11.065Z,98126.53
2022-12-31T01:29:13.067Z,98122.93
2022-12-31T01:30:11.069Z,98125.77
2022-12-31T01:31:11.112Z,98124.22
2022-12-31T01:32:11.076Z,98120.03
2022-12-31T01:33:11.066Z,98126.18
2022-12-31T01:34:11.079Z,98126.16
2022-12-31T01:35:11.067Z,98125.74
2022-12-31T01:36:25.084Z,98135.02
2022-12-31T01:37:13.371Z,98122.86
2022-12-31T01:38:11.066Z,98125.96
2022-12-31T01:39:11.086Z,98119.58
2022-12-31T01:40:11.072Z,98113.91
2022-12-31T01:41:12.079Z,98106.31
2022-12-31T01:42:13.072Z,98109.73
2022-12-31T01:43:19.065Z,98115.15
2022-12-31T01:44:21.067Z,98113.95
2022-12-31T01:45:14.067Z,98126.63
2022-12-31T01:46:11.094Z,98115.89
2022-12-31T01:47:17.069Z,98118.51
2022-12-31T01:48:13.068Z,98110.67
2022-12-31T01:49:21.139Z,98117.14
2022-12-31T01:50:21.067Z,98113.79
2022-12-31T01:51:11.065Z,98113.72
2022-12-31T01:52:22.068Z,98114.28
2022-12-31T01:53:11.067Z,98118.42
2022-12-31T01:54:12.072Z,98120.20
2022-12-31T01:55:21.068Z,98114.73
2022-12-31T01:56:11.067Z,98116.90
2022-12-31T01:57:11.070Z,98117.92
2022-12-31T01:58:17.083Z,98119.45
2022-12-31T01:59:11.106Z,98123.38
2022-12-31T02:00:11.071Z,98118.50
2022-12-31T02:01:12.119Z,98118.21
2022-12-31T02:02:11.189Z,98117.64
2022-12-31T02:03:11.151Z,98117.31
2022-12-31T02:04:13.074Z,98116.15
2022-12-31T02:05:19.075Z,98116.70
2022-12-31T02:06:19.079Z,98121.18
2022-12-31T02:07:11.066Z,98119.04
2022-12-31T02:08:11.067Z,98121.32
2022-12-31T02:09:11.072Z,98115.42
2022-12-31T02:10:11.067Z,98122.81
2022-12-31T02:11:20.069Z,98120.37
2022-12-31T02:12:11.105Z,98122.82
2022-12-31T02:13:11.066Z,98127.13
2022-12-31T02:14:15.076Z,98121.45
2022-12-31T02:15:11.068Z,98121.93
2022-12-31T02:16:21.116Z,98119.63
2022-12-31T02:17:21.068Z,98124.69
2022-12-31T02:18:19.070Z,98131.09
2022-12-31T02:19:21.076Z,98132.76
2022-12-31T02:20:19.082Z,98136.48
2022-12-31T02:21:19.072Z,98141.81
2022-12-31T02:22:19.073Z,98143.20
2022-12-31T02:23:19.078Z,98147.65
2022-12-31T02:24:21.071Z,98149.76
2022-12-31T02:25:21.067Z,98140.59
2022-12-31T02:26:19.066Z,98142.31
2022-12-31T02:27:21.071Z,98135.46
2022-12-31T02:28:21.070Z,98145.36
2022-12-31T02:29:19.086Z,98147.90
2022-12-31T02:30:16.076Z,98145.52
2022-12-31T02:31:23.120Z,98147.83
2022-12-31T02:32:21.100Z,98147.09
2022-12-31T02:33:19.076Z,98153.15
2022-12-31T02:34:19.075Z,98160.10
2022-12-31T02:35:15.082Z,98157.09
2022-12-31T02:36:20.068Z,98160.80
2022-12-31T02:37:14.071Z,98164.94
2022-12-31T02:38:14.090Z,98161.67
2022-12-31T02:39:11.080Z,98157.02
2022-12-31T02:40:13.069Z,98157.65
2022-12-31T02:41:14.070Z,98150.58
2022-12-31T02:42:11.079Z,98150.14
2022-12-31T02:43:11.070Z,98153.45
2022-12-31T02:44:19.073Z,98155.07
2022-12-31T02:45:12.086Z,98150.41
2022-12-31T02:46:18.163Z,98152.74
2022-12-31T02:47:19.070Z,98153.42
2022-12-31T02:48:21.080Z,98153.32
2022-12-31T02:49:20.071Z,98157.30
2022-12-31T02:50:19.080Z,98154.48
2022-12-31T02:51:21.072Z,98154.50
2022-12-31T02:52:21.072Z,98148.88
2022-12-31T02:53:19.070Z,98143.14
2022-12-31T02:54:20.081Z,98136.65
2022-12-31T02:55:21.072Z,98137.80
2022-12-31T02:56:21.079Z,98140.83
2022-12-31T02:57:19.099Z,98132.01
2022-12-31T02:58:21.089Z,98136.72
2022-12-31T02:59:23.070Z,98123.99
2022-12-31T03:00:15.069Z,98134.85
2022-12-31T03:01:17.269Z,98121.90
2022-12-31T03:02:18.250Z,98125.79
2022-12-31T03:03:11.075Z,98130.58
2022-12-31T03:04:15.074Z,98132.35
2022-12-31T03:05:11.082Z,98124.14
2022-12-31T03:06:11.085Z,98118.16
2022-12-31T03:07:12.078Z,98122.34
2022-12-31T03:08:11.072Z,98114.94
2022-12-31T03:09:15.078Z,98117.71
2022-12-31T03:10:11.073Z,98116.18
2022-12-31T03:11:15.074Z,98103.12
2022-12-31T03:12:15.087Z,98108.08
2022-12-31T03:13:11.076Z,98101.14
2022-12-31T03:14:11.074Z,98103.17
2022-12-31T03:15:11.073Z,98105.86
2022-12-31T03:16:11.101Z,98106.58
2022-12-31T03:17:11.071Z,98123.62
2022-12-31T03:18:15.078Z,98126.54
2022-12-31T03:19:15.085Z,98130.79
2022-12-31T03:20:15.122Z,98143.49
2022-12-31T03:21:15.080Z,98139.96
2022-12-31T03:22:15.074Z,98137.39
2022-12-31T03:23:11.083Z,98139.95
2022-12-31T03:24:15.098Z,98139.32
2022-12-31T03:25:15.075Z,98135.82
2022-12-31T03:26:15.074Z,98132.44
2022-12-31T03:27:11.078Z,98122.50
2022-12-31T03:28:12.072Z,98122.16
2022-12-31T03:29:11.076Z,98120.17
2022-12-31T03:30:11.074Z,98113.60
2022-12-31T03:31:11.165Z,98107.43
2022-12-31T03:32:11.076Z,98108.02
2022-12-31T03:33:11.075Z,98110.51
2022-12-31T03:34:11.077Z,98106.03
2022-12-31T03:35:11.073Z,98112.66
2022-12-31T03:36:12.090Z,98112.57
2022-12-31T03:37:11.077Z,98109.61
2022-12-31T03:38:11.077Z,98113.09
2022-12-31T03:39:11.077Z,98101.89
2022-12-31T03:40:12.084Z,98110.14
2022-12-31T03:41:11.113Z,98113.46
2022-12-31T03:42:11.075Z,98113.28
2022-12-31T03:43:11.086Z,98108.57
2022-12-31T03:44:11.077Z,98109.02
2022-12-31T03:45:11.076Z,98100.52
2022-12-31T03:46:11.098Z,98098.91
2022-12-31T03:47:11.077Z,98099.82
2022-12-31T03:48:11.076Z,98098.93
2022-12-31T03:49:11.080Z,98095.77
2022-12-31T03:50:11.078Z,98099.29
2022-12-31T03:51:11.076Z,98084.63
2022-12-31T03:52:11.080Z,98080.71
2022-12-31T03:53:11.078Z,98080.84
2022-12-31T03:54:11.078Z,98065.23
2022-12-31T03:55:11.099Z,98074.88
2022-12-31T03:56:11.075Z,98076.77
2022-12-31T03:57:11.080Z,98075.27
2022-12-31T03:58:11.102Z,98073.19
2022-12-31T03:59:11.093Z,98074.93
2022-12-31T04:00:12.057Z,98066.95
2022-12-31T04:01:11.233Z,98060.24
2022-12-31T04:02:11.285Z,98061.25
2022-12-31T04:03:11.096Z,98052.40
2022-12-31T04:04:11.078Z,98058.11
2022-12-31T04:05:11.065Z,98058.11
2022-12-31T04:06:11.061Z,98061.12
2022-12-31T04:07:11.065Z,98069.24
2022-12-31T04:08:11.070Z,98064.03
2022-12-31T04:09:11.058Z,98071.91
2022-12-31T04:10:11.072Z,98079.38
2022-12-31T04:11:14.680Z,98075.45
2022-12-31T04:12:13.355Z,98073.20
2022-12-31T04:13:11.066Z,98077.79
2022-12-31T04:14:11.064Z,98074.72
2022-12-31T04:15:14.076Z,98078.02
2022-12-31T04:16:11.090Z,98081.99
2022-12-31T04:17:11.070Z,98082.19
2022-12-31T04:18:11.194Z,98085.31
2022-12-31T04:19:11.067Z,98087.00
2022-12-31T04:20:11.069Z,98081.70
2022-12-31T04:21:11.060Z,98084.83
2022-12-31T04:22:11.069Z,98086.26
2022-12-31T04:23:11.079Z,98082.21
2022-12-31T04:24:11.062Z,98090.66
2022-12-31T04:25:11.075Z,98092.04
2022-12-31T04:26:11.069Z,98094.63
2022-12-31T04:27:11.069Z,98088.50
2022-12-31T04:28:11.066Z,98086.93
2022-12-31T04:29:11.074Z,98084.00
2022-12-31T04:30:11.072Z,98080.06
2022-12-31T04:31:11.067Z,98070.82
2022-12-31T04:32:11.122Z,98076.73
2022-12-31T04:33:11.064Z,98068.06
2022-12-31T04:34:11.064Z,98063.39
2022-12-31T04:35:11.109Z,98064.88
2022-12-31T04:36:11.075Z,98054.14
2022-12-31T04:37:11.064Z,98046.62
2022-12-31T04:38:11.068Z,98043.44
2022-12-31T04:39:11.066Z,98042.85
2022-12-31T04:40:11.064Z,98038.73
2022-12-31T04:41:15.084Z,98040.70
2022-12-31T04:42:11.065Z,98033.02
2022-12-31T04:43:11.067Z,98027.48
2022-12-31T04:44:11.067Z,98012.01
2022-12-31T04:45:11.068Z,98005.91
2022-12-31T04:46:11.101Z,98006.79
2022-12-31T04:47:11.069Z,98007.55
2022-12-31T04:48:11.065Z,98010.66
2022-12-31T04:49:11.071Z,98012.32
2022-12-31T04:50:11.074Z,98019.03
2022-12-31T04:51:11.063Z,98022.56
2022-12-31T04:52:11.067Z,98027.19
2022-12-31T04:53:11.075Z,98026.37
2022-12-31T04:54:11.072Z,98031.08
2022-12-31T04:55:11.095Z,98036.18
2022-12-31T04:56:11.096Z,98040.20
2022-12-31T04:57:11.075Z,98036.11
2022-12-31T04:58:11.071Z,98038.29
2022-12-31T04:59:11.079Z,98045.32
2022-12-31T05:00:11.071Z,98050.52
2022-12-31T05:01:11.214Z,98050.10
2022-12-31T05:02:11.281Z,98042.53
2022-12-31T05:03:11.140Z,98042.04
2022-12-31T05:04:12.078Z,98033.91
2022-12-31T05:05:11.078Z,98036.94
2022-12-31T05:06:13.069Z,98041.46
2022-12-31T05:07:11.065Z,98047.36
2022-12-31T05:08:11.071Z,98041.04
2022-12-31T05:09:11.078Z,98036.62
2022-12-31T05:10:11.067Z,98027.34
2022-12-31T05:11:11.085Z,98024.94
2022-12-31T05:12:11.078Z,98022.77
2022-12-31T05:13:11.065Z,98015.21
2022-12-31T05:14:11.072Z,98012.18
2022-12-31T05:15:11.073Z,98018.30
2022-12-31T05:16:11.195Z,98022.89
2022-12-31T05:17:11.075Z,98023.07
2022-12-31T05:18:11.072Z,98017.69
2022-12-31T05:19:13.073Z,98020.05
2022-12-31T05:20:11.071Z,98020.39
2022-12-31T05:21:15.071Z,98021.44
2022-12-31T05:22:15.070Z,98021.79
2022-12-31T05:23:11.071Z,98021.25
2022-12-31T05:24:11.082Z,98020.59
2022-12-31T05:25:11.069Z,98019.92
2022-12-31T05:26:11.072Z,98023.40
2022-12-31T05:27:11.083Z,98021.80
2022-12-31T05:28:11.067Z,98023.41
2022-12-31T05:29:11.072Z,98023.09
2022-12-31T05:30:11.079Z,98022.12
2022-12-31T05:31:11.104Z,98024.84
2022-12-31T05:32:11.068Z,98030.23
2022-12-31T05:33:11.078Z,98033.81
2022-12-31T05:34:11.074Z,98030.91
2022-12-31T05:35:11.069Z,98026.40
2022-12-31T05:36:11.074Z,98022.80
2022-12-31T05:37:11.075Z,98023.45
2022-12-31T05:38:11.075Z,98022.92
2022-12-31T05:39:11.074Z,98023.20
2022-12-31T05:40:11.076Z,98022.33
2022-12-31T05:41:11.079Z,98024.52
2022-12-31T05:42:11.085Z,98029.59
2022-12-31T05:43:11.080Z,98022.44
2022-12-31T05:44:11.078Z,98022.39
2022-12-31T05:45:11.075Z,98025.47
2022-12-31T05:46:11.104Z,98020.82
2022-12-31T05:47:11.074Z,98028.83
2022-12-31T05:48:11.080Z,98015.83
2022-12-31T05:49:11.070Z,98017.65
2022-12-31T05:50:11.081Z,98017.69
2022-12-31T05:51:11.081Z,98024.83
2022-12-31T05:52:11.074Z,98028.42
2022-12-31T05:53:11.076Z,98025.52
2022-12-31T05:54:11.085Z,98028.45
2022-12-31T05:55:11.070Z,98028.22
2022-12-31T05:56:11.075Z,98026.54
2022-12-31T05:57:11.082Z,98034.16
2022-12-31T05:58:11.077Z,98035.15
2022-12-31T05:59:11.073Z,98033.16
2022-12-31T06:00:11.083Z,98030.70
2022-12-31T06:01:11.105Z,98019.63
2022-12-31T06:02:11.075Z,98022.21
2022-12-31T06:03:11.288Z,98014.18
2022-12-31T06:04:11.077Z,98016.90
2022-12-31T06:05:11.082Z,98006.76
2022-12-31T06:06:11.081Z,98015.91
2022-12-31T06:07:11.075Z,98018.47
2022-12-31T06:08:11.094Z,98022.35
2022-12-31T06:09:11.083Z,98006.00
2022-12-31T06:10:11.080Z,98007.50
2022-12-31T06:11:11.091Z,97999.22
2022-12-31T06:12:11.096Z,98005.35
2022-12-31T06:13:11.081Z,98004.32
2022-12-31T06:14:11.076Z,98002.69
2022-12-31T06:15:11.084Z,98006.96
2022-12-31T06:16:11.140Z,98009.11
2022-12-31T06:17:11.077Z,98003.00
2022-12-31T06:18:11.087Z,97997.56
2022-12-31T06:19:11.077Z,98000.30
2022-12-31T06:20:13.317Z,98003.10
2022-12-31T06:21:11.089Z,98008.08
2022-12-31T06:22:11.077Z,98007.05
2022-12-31T06:23:11.071Z,98013.48
2022-12-31T06:24:11.078Z,98015.08
2022-12-31T06:25:11.078Z,98005.36
2022-12-31T06:26:11.078Z,98011.19
2022-12-31T06:27:11.085Z,98015.76
2022-12-31T06:28:17.805Z,98009.41
2022-12-31T06:29:13.256Z,98017.18
2022-12-31T06:30:11.081Z,98018.65
2022-12-31T06:31:11.154Z,98008.12
2022-12-31T06:32:11.077Z,98025.53
2022-12-31T06:33:11.084Z,98014.95
2022-12-31T06:34:11.086Z,98007.97
2022-12-31T06:35:11.075Z,98007.25
2022-12-31T06:36:12.080Z,98009.82
2022-12-31T06:37:11.084Z,98010.50
2022-12-31T06:38:11.089Z,98010.54
2022-12-31T06:39:11.095Z,98006.66
2022-12-31T06:40:11.085Z,98005.28
2022-12-31T06:41:11.077Z,98010.95
2022-12-31T06:42:11.080Z,98007.35
2022-12-31T06:43:11.099Z,98006.11
2022-12-31T06:44:11.076Z,98000.82
2022-12-31T06:45:11.082Z,98004.59
2022-12-31T06:46:13.179Z,98006.65
2022-12-31T06:47:11.081Z,98002.25
2022-12-31T06:48:11.079Z,98003.71
2022-12-31T06:49:11.089Z,98007.58
2022-12-31T06:50:11.078Z,98021.87
2022-12-31T06:51:16.945Z,98015.09
2022-12-31T06:52:11.083Z,98012.02
2022-12-31T06:53:11.085Z,98010.01
2022-12-31T06:54:11.080Z,98006.57
2022-12-31T06:55:11.083Z,98007.15
2022-12-31T06:56:15.083Z,98008.25
2022-12-31T06:57:11.080Z,97998.81
2022-12-31T06:58:13.084Z,98001.72
2022-12-31T06:59:19.082Z,97997.24
2022-12-31T07:00:11.059Z,97996.91
2022-12-31T07:01:19.178Z,98001.00
2022-12-31T07:02:19.135Z,97999.13
2022-12-31T07:03:19.118Z,98003.58
2022-12-31T07:04:19.066Z,98004.93
2022-12-31T07:05:21.065Z,98022.71
2022-12-31T07:06:17.067Z,98032.59
2022-12-31T07:07:19.073Z,98033.63
2022-12-31T07:08:19.065Z,98034.63
2022-12-31T07:09:21.063Z,98037.01
2022-12-31T07:10:25.582Z,98040.16
2022-12-31T07:11:22.262Z,98047.64
2022-12-31T07:12:19.069Z,98041.07
2022-12-31T07:13:19.064Z,98045.39
2022-12-31T07:14:21.066Z,98051.41
2022-12-31T07:15:19.074Z,98050.12
2022-12-31T07:16:21.089Z,98059.23
2022-12-31T07:17:19.072Z,98058.24
2022-12-31T07:18:19.068Z,98057.27
2022-12-31T07:19:19.065Z,98063.20
2022-12-31T07:20:17.066Z,98058.92
2022-12-31T07:21:16.091Z,98073.34
2022-12-31T07:22:13.070Z,98071.52
2022-12-31T07:23:11.062Z,98077.07
2022-12-31T07:24:11.067Z,98081.96
2022-12-31T07:25:14.083Z,98078.23
2022-12-31T07:26:19.074Z,98072.04
2022-12-31T07:27:19.062Z,98075.73
2022-12-31T07:28:19.065Z,98078.93
2022-12-31T07:29:21.078Z,98081.54
2022-12-31T07:30:19.067Z,98088.09
2022-12-31T07:31:19.134Z,98091.62
2022-12-31T07:32:19.080Z,98094.97
2022-12-31T07:33:19.067Z,98103.20
2022-12-31T07:34:17.067Z,98100.05
2022-12-31T07:35:23.066Z,98090.72
2022-12-31T07:36:21.066Z,98102.00
2022-12-31T07:37:18.067Z,98093.18
2022-12-31T07:38:19.074Z,98100.05
2022-12-31T07:39:21.069Z,98103.81
2022-12-31T07:40:21.067Z,98113.05
2022-12-31T07:41:21.064Z,98117.93
2022-12-31T07:42:18.067Z,98110.80
2022-12-31T07:43:19.065Z,98111.95
2022-12-31T07:44:21.076Z,98113.22
2022-12-31T07:45:23.067Z,98125.24
2022-12-31T07:46:21.102Z,98121.25
2022-12-31T07:47:19.066Z,98125.30
2022-12-31T07:48:19.064Z,98122.33
2022-12-31T07:49:14.083Z,98125.27
2022-12-31T07:50:15.074Z,98131.19
2022-12-31T07:51:13.074Z,98122.57
2022-12-31T07:52:11.068Z,98124.30
2022-12-31T07:53:11.077Z,98128.64
2022-12-31T07:54:14.161Z,98128.29
2022-12-31T07:55:11.078Z,98126.88
2022-12-31T07:56:11.076Z,98124.11
2022-12-31T07:57:14.068Z,98130.99
2022-12-31T07:58:19.074Z,98138.74
2022-12-31T07:59:24.528Z,98139.36
2022-12-31T08:00:16.158Z,98133.12
2022-12-31T08:01:14.260Z,98139.91
2022-12-31T08:02:19.192Z,98137.76
2022-12-31T08:03:19.065Z,98145.40
2022-12-31T08:04:19.068Z,98147.00
2022-12-31T08:05:19.086Z,98159.56
2022-12-31T08:06:19.074Z,98159.67
2022-12-31T08:07:19.075Z,98164.52
2022-12-31T08:08:21.078Z,98167.98
2022-12-31T08:09:21.073Z,98176.39
2022-12-31T08:10:19.083Z,98179.77
2022-12-31T08:11:21.072Z,98177.39
2022-12-31T08:12:11.079Z,98180.20
2022-12-31T08:13:14.074Z,98185.71
2022-12-31T08:14:14.081Z,98189.10
2022-12-31T08:15:17.082Z,98196.78
2022-12-31T08:16:12.192Z,98196.76
2022-12-31T08:17:14.068Z,98198.16
2022-12-31T08:18:11.077Z,98201.75
2022-12-31T08:19:19.070Z,98196.52
2022-12-31T08:20:13.066Z,98192.86
2022-12-31T08:21:19.082Z,98194.53
2022-12-31T08:22:19.070Z,98195.90
2022-12-31T08:23:21.084Z,98197.70
2022-12-31T08:24:21.077Z,98201.35
2022-12-31T08:25:20.070Z,98210.45
2022-12-31T08:26:21.079Z,98208.92
2022-12-31T08:27:18.074Z,98212.10
2022-12-31T08:28:19.071Z,98199.20
2022-12-31T08:29:21.068Z,98202.57
2022-12-31T08:30:15.079Z,98195.75
2022-12-31T08:31:18.146Z,98206.03
2022-12-31T08:32:18.072Z,98200.74
2022-12-31T08:33:19.071Z,98206.83
2022-12-31T08:34:19.067Z,98213.29
2022-12-31T08:35:19.072Z,98210.95
2022-12-31T08:36:19.100Z,98216.44
2022-12-31T08:37:18.072Z,98220.68
2022-12-31T08:38:21.083Z,98229.38
2022-12-31T08:39:20.090Z,98224.27
2022-12-31T08:40:19.076Z,98230.40
2022-12-31T08:41:19.082Z,98220.78
2022-12-31T08:42:19.079Z,98229.93
2022-12-31T08:43:19.072Z,98227.04
2022-12-31T08:44:19.078Z,98226.77
2022-12-31T08:45:21.076Z,98230.34
2022-12-31T08:46:19.094Z,98228.37
2022-12-31T08:47:19.090Z,98231.99
2022-12-31T08:48:19.084Z,98241.55
2022-12-31T08:49:11.079Z,98236.96
2022-12-31T08:50:18.075Z,98235.03
2022-12-31T08:51:15.081Z,98225.56
2022-12-31T08:52:21.073Z,98231.55
2022-12-31T08:53:11.072Z,98227.29
2022-12-31T08:54:13.077Z,98231.11
2022-12-31T08:55:13.080Z,98236.64
2022-12-31T08:56:18.072Z,98233.09
2022-12-31T08:57:19.079Z,98240.69
2022-12-31T08:58:19.093Z,98236.98
2022-12-31T08:59:21.083Z,98236.88
2022-12-31T09:00:19.085Z,98239.79
2022-12-31T09:01:11.162Z,98237.00
2022-12-31T09:02:19.121Z,98240.85
2022-12-31T09:03:21.084Z,98239.14
2022-12-31T09:04:21.131Z,98237.43
2022-12-31T09:05:21.082Z,98244.45
2022-12-31T09:06:19.076Z,98244.54
2022-12-31T09:07:11.075Z,98248.44
2022-12-31T09:08:21.084Z,98251.24
2022-12-31T09:09:19.077Z,98255.04
2022-12-31T09:10:19.078Z,98263.71
2022-12-31T09:11:23.433Z,98264.90
2022-12-31T09:12:17.078Z,98270.83
2022-12-31T09:13:19.084Z,98273.80
2022-12-31T09:14:19.076Z,98273.55
2022-12-31T09:15:21.080Z,98275.03
2022-12-31T09:16:20.088Z,98269.23
2022-12-31T09:17:21.079Z,98268.12
2022-12-31T09:18:11.084Z,98275.12
2022-12-31T09:19:11.086Z,98272.98
2022-12-31T09:20:20.090Z,98276.55
2022-12-31T09:21:14.085Z,98275.75
2022-12-31T09:22:12.082Z,98271.36
2022-12-31T09:23:11.088Z,98273.45
2022-12-31T09:24:14.084Z,98277.21
2022-12-31T09:25:16.077Z,98282.74
2022-12-31T09:26:19.076Z,98286.89
2022-12-31T09:27:23.883Z,98282.64
2022-12-31T09:28:24.032Z,98285.46
2022-12-31T09:29:19.086Z,98288.73
2022-12-31T09:30:13.083Z,98288.15
2022-12-31T09:31:19.165Z,98294.38
2022-12-31T09:32:19.081Z,98283.82
2022-12-31T09:33:15.083Z,98294.24
2022-12-31T09:34:19.080Z,98290.50
2022-12-31T09:35:21.078Z,98288.48
2022-12-31T09:36:13.080Z,98295.41
2022-12-31T09:37:16.087Z,98287.98
2022-12-31T09:38:19.215Z,98274.95
2022-12-31T09:39:21.079Z,98276.67
2022-12-31T09:40:21.166Z,98279.17
2022-12-31T09:41:19.081Z,98277.95
2022-12-31T09:42:19.087Z,98279.61
2022-12-31T09:43:19.084Z,98278.89
2022-12-31T09:44:19.077Z,98272.71
2022-12-31T09:45:19.077Z,98279.38
2022-12-31T09:46:19.154Z,98276.84
2022-12-31T09:47:21.091Z,98275.28
2022-12-31T09:48:19.083Z,98276.94
2022-12-31T09:49:19.078Z,98279.22
2022-12-31T09:50:19.091Z,98286.62
2022-12-31T09:51:25.207Z,98281.82
2022-12-31T09:52:19.091Z,98285.87
2022-12-31T09:53:21.120Z,98285.11
2022-12-31T09:54:21.095Z,98282.09
2022-12-31T09:55:19.090Z,98285.76
2022-12-31T09:56:21.161Z,98292.55
2022-12-31T09:57:21.094Z,98300.14
2022-12-31T09:58:21.084Z,98298.17
2022-12-31T09:59:19.096Z,98296.55
2022-12-31T10:00:21.074Z,98295.16
2022-12-31T10:01:21.205Z,98289.52
2022-12-31T10:02:21.303Z,98293.70
2022-12-31T10:03:21.207Z,98288.93
2022-12-31T10:04:19.063Z,98285.42
2022-12-31T10:05:19.061Z,98295.46
2022-12-31T10:06:19.083Z,98297.74
2022-12-31T10:07:23.062Z,98294.68
2022-12-31T10:08:19.074Z,98297.21
2022-12-31T10:09:19.066Z,98308.45
2022-12-31T10:10:21.061Z,98303.18
2022-12-31T10:11:21.068Z,98305.38
2022-12-31T10:12:19.064Z,98302.32
2022-12-31T10:13:21.071Z,98298.73
2022-12-31T10:14:19.078Z,98299.75
2022-12-31T10:15:21.067Z,98304.25
2022-12-31T10:16:19.124Z,98295.24
2022-12-31T10:17:21.064Z,98297.13
2022-12-31T10:18:19.072Z,98304.22
2022-12-31T10:19:21.071Z,98303.43
2022-12-31T10:20:21.069Z,98311.65
2022-12-31T10:21:19.061Z,98309.19
2022-12-31T10:22:19.066Z,98309.44
2022-12-31T10:23:19.075Z,98307.59
2022-12-31T10:24:19.066Z,98304.10
2022-12-31T10:25:19.081Z,98305.48
2022-12-31T10:26:19.078Z,98313.58
2022-12-31T10:27:21.071Z,98316.39
2022-12-31T10:28:18.074Z,98317.58
2022-12-31T10:29:19.066Z,98317.92
2022-12-31T10:30:17.066Z,98322.48
2022-12-31T10:31:23.126Z,98326.79
2022-12-31T10:32:15.069Z,98328.59
2022-12-31T10:33:19.062Z,98320.38
2022-12-31T10:34:16.147Z,98324.32
2022-12-31T10:35:19.066Z,98328.64
2022-12-31T10:36:17.074Z,98330.63
2022-12-31T10:37:16.072Z,98334.30
2022-12-31T10:38:19.082Z,98337.48
2022-12-31T10:39:24.064Z,98340.66
2022-12-31T10:40:23.254Z,98347.52
2022-12-31T10:41:21.066Z,98343.35
2022-12-31T10:42:23.069Z,98354.08
2022-12-31T10:43:19.065Z,98351.12
2022-12-31T10:44:19.062Z,98348.80
2022-12-31T10:45:19.067Z,98355.89
2022-12-31T10:46:23.019Z,98362.86
2022-12-31T10:47:19.069Z,98357.65
2022-12-31T10:48:19.126Z,98357.20
2022-12-31T10:49:19.065Z,98347.10
2022-12-31T10:50:19.117Z,98347.39
2022-12-31T10:51:19.092Z,98343.97
2022-12-31T10:52:21.071Z,98346.10
2022-12-31T10:53:19.064Z,98351.04
2022-12-31T10:54:23.071Z,98346.91
2022-12-31T10:55:19.072Z,98348.43
2022-12-31T10:56:19.075Z,98338.82
2022-12-31T10:57:19.068Z,98347.86
2022-12-31T10:58:21.067Z,98346.24
2022-12-31T10:59:21.067Z,98348.48
2022-12-31T11:00:18.072Z,98342.03
2022-12-31T11:01:19.174Z,98346.39
2022-12-31T11:02:19.276Z,98347.51
2022-12-31T11:03:22.201Z,98349.95
2022-12-31T11:04:21.241Z,98343.70
2022-12-31T11:05:19.073Z,98340.76
2022-12-31T11:06:19.071Z,98337.48
2022-12-31T11:07:19.069Z,98336.05
2022-12-31T11:08:21.065Z,98345.89
2022-12-31T11:09:19.072Z,98351.70
2022-12-31T11:10:19.078Z,98348.30
2022-12-31T11:11:21.072Z,98352.72
2022-12-31T11:12:19.075Z,98354.04
2022-12-31T11:13:21.063Z,98358.25
2022-12-31T11:14:21.074Z,98359.33
2022-12-31T11:15:19.072Z,98359.01
2022-12-31T11:16:21.127Z,98360.42
2022-12-31T11:17:19.075Z,98355.06
2022-12-31T11:18:19.095Z,98354.43
2022-12-31T11:19:21.078Z,98351.25
2022-12-31T11:20:19.073Z,98354.08
2022-12-31T11:21:24.519Z,98357.26
2022-12-31T11:22:21.224Z,98352.18
2022-12-31T11:23:19.074Z,98359.27
2022-12-31T11:24:19.079Z,98357.81
2022-12-31T11:25:20.099Z,98354.34
2022-12-31T11:26:19.079Z,98354.24
2022-12-31T11:27:19.073Z,98356.98
2022-12-31T11:28:19.070Z,98356.09
2022-12-31T11:29:21.073Z,98358.32
2022-12-31T11:30:21.071Z,98358.65
2022-12-31T11:31:19.121Z,98355.49
2022-12-31T11:32:19.073Z,98358.35
2022-12-31T11:33:19.071Z,98362.04
2022-12-31T11:34:19.071Z,98355.41
2022-12-31T11:35:19.073Z,98355.96
2022-12-31T11:36:19.083Z,98354.63
2022-12-31T11:37:21.073Z,98352.06
2022-12-31T11:38:19.077Z,98353.34
2022-12-31T11:39:19.088Z,98353.09
2022-12-31T11:40:19.073Z,98348.16
2022-12-31T11:41:19.091Z,98353.23
2022-12-31T11:42:18.093Z,98352.86
2022-12-31T11:43:19.073Z,98350.81
2022-12-31T11:44:19.094Z,98347.00
2022-12-31T11:45:21.081Z,98350.83
2022-12-31T11:46:19.126Z,98348.02